Time;durP1;ratioP1;P1;durP2;ratioP2;P2;SDS_P1;SDS_P2;PMS_P1;PMS_P2;Temp;Humidity;BMP_temperature;BMP_pressure;BME280_temperature;BME280_humidity;BME280_pressure;Samples;Min_cycle;Max_cycle;Signal;HPM_P1;HPM_P2
2021/04/04 00:00:19;;;;;;;9.30;1.52;;;7.00;99.90;;;;;;5045714;28;20094;-66
2021/04/04 00:02:45;;;;;;;13.23;1.98;;;7.00;99.90;;;;;;5036642;28;20032;-65
2021/04/04 00:05:12;;;;;;;10.07;1.58;;;7.00;99.90;;;;;;5034393;28;20092;-66
2021/04/04 00:07:38;;;;;;;10.30;1.95;;;7.00;99.90;;;;;;5043355;28;20032;-66
2021/04/04 00:10:05;;;;;;;9.88;1.98;;;7.00;99.90;;;;;;5041853;28;20374;-66
2021/04/04 00:12:31;;;;;;;16.83;2.25;;;7.00;99.90;;;;;;5042452;28;20158;-66
2021/04/04 00:14:57;;;;;;;9.63;1.40;;;6.90;99.90;;;;;;5043902;28;20863;-66
2021/04/04 00:17:23;;;;;;;10.55;1.70;;;6.90;99.90;;;;;;5048985;28;20498;-66
2021/04/04 00:19:48;;;;;;;7.25;1.63;;;7.00;99.90;;;;;;5040886;28;20044;-66
2021/04/04 00:22:14;;;;;;;10.90;1.23;;;7.00;99.90;;;;;;5046643;28;20497;-66
2021/04/04 00:24:39;;;;;;;6.45;1.52;;;6.90;99.90;;;;;;5047474;28;20036;-66
2021/04/04 00:27:05;;;;;;;8.70;1.30;;;6.90;99.90;;;;;;5042015;28;20034;-66
2021/04/04 00:29:31;;;;;;;6.57;1.50;;;7.00;99.90;;;;;;5041181;28;20021;-66
2021/04/04 00:31:57;;;;;;;12.55;1.50;;;6.90;99.90;;;;;;5041633;28;20032;-66
2021/04/04 00:34:24;;;;;;;8.93;1.55;;;7.00;99.90;;;;;;5042976;28;20398;-66
2021/04/04 00:36:50;;;;;;;28.60;2.45;;;6.90;99.90;;;;;;5042053;28;20029;-66
2021/04/04 00:39:16;;;;;;;11.23;1.77;;;6.90;99.90;;;;;;5043436;28;20043;-66
2021/04/04 00:41:42;;;;;;;7.97;1.52;;;6.90;99.90;;;;;;5042345;28;20029;-66
2021/04/04 00:44:08;;;;;;;11.25;2.13;;;6.90;99.90;;;;;;5044036;28;20060;-66
2021/04/04 00:46:34;;;;;;;7.10;1.10;;;6.80;99.90;;;;;;5044983;28;20033;-66
2021/04/04 00:49:00;;;;;;;15.77;2.28;;;6.90;99.90;;;;;;5041724;28;20064;-66
2021/04/04 00:51:26;;;;;;;4.25;0.82;;;6.90;99.90;;;;;;5038331;28;20039;-66
2021/04/04 00:53:52;;;;;;;11.10;1.35;;;6.90;99.90;;;;;;5042310;28;20033;-66
2021/04/04 00:56:18;;;;;;;13.63;2.40;;;6.80;99.90;;;;;;5041626;28;20041;-66
2021/04/04 00:58:44;;;;;;;12.07;1.02;;;6.90;99.90;;;;;;5039760;28;20044;-66
2021/04/04 01:01:11;;;;;;;14.23;1.95;;;6.80;99.90;;;;;;5045077;28;20033;-66
2021/04/04 01:03:37;;;;;;;6.72;0.88;;;6.80;99.90;;;;;;5042096;28;20034;-66
2021/04/04 01:06:06;;;;;;;9.55;2.63;;;6.80;99.90;;;;;;5038476;28;20071;-66
2021/04/04 01:08:35;;;;;;;6.95;1.45;;;6.80;99.90;;;;;;5039894;28;20087;-66
2021/04/04 01:11:03;;;;;;;2.83;0.80;;;6.80;99.90;;;;;;5043113;28;20037;-66
2021/04/04 01:13:52;;;;;;;7.97;1.25;;;6.80;99.90;;;;;;5036913;28;20036;-65
2021/04/04 01:16:33;;;;;;;11.88;1.60;;;6.80;99.90;;;;;;5038695;28;20612;-66
2021/04/04 01:19:39;;;;;;;3.50;0.80;;;6.90;99.90;;;;;;5041237;28;20064;-66
2021/04/04 01:22:18;;;;;;;7.38;1.13;;;6.80;99.90;;;;;;5046393;28;20033;-65
2021/04/04 01:25:12;;;;;;;12.32;1.08;;;6.80;99.90;;;;;;5044104;28;20041;-66
2021/04/04 01:27:43;;;;;;;7.70;1.02;;;6.80;99.90;;;;;;5041670;28;20082;-66
2021/04/04 01:30:12;;;;;;;;;;;6.80;99.90;;;;;;5043043;28;20025;-66
2021/04/04 01:32:40;;;;;;;10.60;1.20;;;6.70;99.90;;;;;;5045066;28;19924;-66
2021/04/04 01:35:08;;;;;;;10.27;1.45;;;6.80;99.90;;;;;;5047081;28;20505;-66
2021/04/04 01:37:35;;;;;;;10.20;1.80;;;6.80;99.90;;;;;;5041873;28;20044;-65
2021/04/04 01:40:03;;;;;;;3.35;1.30;;;6.90;99.90;;;;;;5042458;28;20025;-66
2021/04/04 01:42:30;;;;;;;9.25;1.13;;;6.80;99.90;;;;;;5037610;28;20041;-65
2021/04/04 01:44:57;;;;;;;12.70;1.60;;;6.80;99.90;;;;;;5040652;28;20037;-66
2021/04/04 01:47:23;;;;;;;8.27;1.15;;;6.80;99.90;;;;;;5045387;28;20091;-66
2021/04/04 01:49:52;;;;;;;13.63;1.48;;;6.90;99.90;;;;;;5039137;28;20029;-66
2021/04/04 01:52:19;;;;;;;5.45;1.38;;;6.80;99.90;;;;;;5040198;28;20083;-65
2021/04/04 01:54:44;;;;;;;8.30;1.23;;;6.80;99.90;;;;;;5043291;28;20032;-66
2021/04/04 01:57:12;;;;;;;13.23;1.67;;;6.80;99.90;;;;;;5042108;28;20029;-65
2021/04/04 01:59:38;;;;;;;12.02;3.28;;;6.90;99.90;;;;;;5039099;28;20033;-66
2021/04/04 02:02:05;;;;;;;10.73;1.52;;;6.80;99.90;;;;;;5045636;28;20041;-66
2021/04/04 02:04:31;;;;;;;10.73;1.77;;;6.80;99.90;;;;;;5040932;28;20128;-66
2021/04/04 02:06:57;;;;;;;6.32;1.20;;;6.70;99.90;;;;;;5042124;28;20051;-66
2021/04/04 02:09:24;;;;;;;4.50;0.85;;;6.70;99.90;;;;;;5044769;28;20498;-66
2021/04/04 02:11:52;;;;;;;7.35;1.10;;;6.80;99.90;;;;;;5042616;28;20025;-65
2021/04/04 02:14:21;;;;;;;10.60;1.33;;;6.80;99.90;;;;;;5039360;28;20061;-66
2021/04/04 02:16:50;;;;;;;9.43;1.63;;;6.80;99.90;;;;;;5041036;28;20622;-66
2021/04/04 02:19:20;;;;;;;12.48;1.50;;;6.70;99.90;;;;;;5042649;28;20029;-65
2021/04/04 02:21:48;;;;;;;8.18;1.10;;;6.70;99.90;;;;;;5040151;28;20107;-66
2021/04/04 02:24:14;;;;;;;6.78;1.30;;;6.70;99.90;;;;;;5041037;28;20044;-65
2021/04/04 02:26:40;;;;;;;10.82;1.00;;;6.70;99.90;;;;;;5042328;28;20106;-66
2021/04/04 02:29:06;;;;;;;5.68;1.05;;;6.70;99.90;;;;;;5041408;28;20454;-66
2021/04/04 02:31:45;;;;;;;9.63;1.00;;;6.70;99.90;;;;;;5041068;28;20045;-66
2021/04/04 02:34:15;;;;;;;8.48;1.20;;;6.70;99.90;;;;;;5040780;28;20067;-65
2021/04/04 02:36:41;;;;;;;10.57;1.42;;;6.70;99.90;;;;;;5043169;28;20066;-66
2021/04/04 02:39:24;;;;;;;3.72;0.90;;;6.70;99.90;;;;;;5039733;28;20037;-66
2021/04/04 02:41:50;;;;;;;12.20;1.45;;;6.70;99.90;;;;;;5040754;28;20037;-66
2021/04/04 02:44:16;;;;;;;8.48;1.55;;;6.70;99.90;;;;;;5041785;28;20064;-66
2021/04/04 02:46:50;;;;;;;6.57;1.20;;;6.70;99.90;;;;;;5039753;28;20055;-66
2021/04/04 02:49:17;;;;;;;11.27;1.42;;;6.70;99.90;;;;;;5037526;28;20067;-65
2021/04/04 02:51:47;;;;;;;9.43;2.00;;;6.70;99.90;;;;;;5043319;28;20043;-65
2021/04/04 02:54:20;;;;;;;4.73;1.70;;;6.70;99.90;;;;;;5047622;28;20056;-65
2021/04/04 02:56:48;;;;;;;11.77;1.70;;;6.70;99.90;;;;;;5043039;28;20441;-66
2021/04/04 02:59:24;;;;;;;12.80;1.27;;;6.80;99.90;;;;;;5037860;28;20041;-66
2021/04/04 03:01:51;;;;;;;29.58;2.92;;;6.70;99.90;;;;;;5042814;28;20045;-66
2021/04/04 03:04:19;;;;;;;7.65;1.88;;;6.70;99.90;;;;;;5042602;28;20040;-66
2021/04/04 03:06:46;;;;;;;6.85;1.30;;;6.70;99.90;;;;;;5038361;28;20037;-66
2021/04/04 03:09:14;;;;;;;5.88;1.13;;;6.60;99.90;;;;;;5052077;28;20104;-66
2021/04/04 03:11:41;;;;;;;9.15;1.83;;;6.70;99.90;;;;;;5049116;28;20494;-66
2021/04/04 03:14:09;;;;;;;8.30;1.77;;;6.70;99.90;;;;;;5051930;28;20040;-66
2021/04/04 03:16:35;;;;;;;11.15;1.60;;;6.60;99.90;;;;;;5047110;28;20482;-66
2021/04/04 03:19:03;;;;;;;6.68;1.45;;;6.60;99.90;;;;;;5039337;28;20030;-70
2021/04/04 03:21:30;;;;;;;8.35;1.52;;;6.60;99.90;;;;;;5043314;28;20426;-66
2021/04/04 03:23:57;;;;;;;11.90;1.67;;;6.60;99.90;;;;;;5038190;28;20120;-66
2021/04/04 03:26:23;;;;;;;10.68;2.08;;;6.60;99.90;;;;;;5039959;28;20073;-66
2021/04/04 03:28:49;;;;;;;12.27;1.83;;;6.60;99.90;;;;;;5041403;28;20033;-66
2021/04/04 03:31:15;;;;;;;12.05;2.15;;;6.60;99.90;;;;;;5039751;28;20117;-66
2021/04/04 03:33:44;;;;;;;6.25;1.00;;;6.60;99.90;;;;;;5046087;28;20039;-66
2021/04/04 03:36:18;;;;;;;6.53;1.23;;;6.60;99.90;;;;;;5042134;28;20116;-66
2021/04/04 03:38:45;;;;;;;7.10;1.40;;;6.60;99.90;;;;;;5038539;28;20070;-66
2021/04/04 03:41:13;;;;;;;13.43;1.52;;;6.60;99.90;;;;;;5042068;28;20059;-66
2021/04/04 03:43:40;;;;;;;9.40;1.73;;;6.60;99.90;;;;;;5042832;28;20039;-66
2021/04/04 03:46:10;;;;;;;11.85;1.42;;;6.50;99.90;;;;;;5044270;28;20501;-66
2021/04/04 03:48:37;;;;;;;9.15;0.93;;;6.50;99.90;;;;;;5041127;28;20041;-66
2021/04/04 03:51:06;;;;;;;7.97;1.50;;;6.50;99.90;;;;;;5047292;28;20136;-66
2021/04/04 03:53:33;;;;;;;6.28;1.33;;;6.60;99.90;;;;;;5043783;28;20059;-65
2021/04/04 03:56:04;;;;;;;9.43;1.35;;;6.60;99.90;;;;;;5042056;28;20069;-67
2021/04/04 03:58:33;;;;;;;6.65;0.90;;;6.50;99.90;;;;;;5045825;28;20045;-66
2021/04/04 04:01:02;;;;;;;6.80;1.38;;;6.50;99.90;;;;;;5043132;28;20052;-66
2021/04/04 04:03:29;;;;;;;9.40;1.40;;;6.60;99.90;;;;;;5042623;28;20116;-65
2021/04/04 04:05:56;;;;;;;8.65;1.13;;;6.60;99.90;;;;;;5046551;28;20026;-66
2021/04/04 04:08:22;;;;;;;7.05;1.27;;;6.60;99.90;;;;;;5043627;28;20040;-66
2021/04/04 04:10:49;;;;;;;4.75;1.15;;;6.60;99.90;;;;;;5043769;28;20021;-66
2021/04/04 04:13:15;;;;;;;6.45;1.15;;;6.60;99.90;;;;;;5043565;28;20037;-66
2021/04/04 04:15:41;;;;;;;5.82;1.48;;;6.60;99.90;;;;;;5040572;28;20032;-66
2021/04/04 04:18:08;;;;;;;4.22;0.80;;;6.60;99.90;;;;;;5043297;28;20124;-65
2021/04/04 04:20:35;;;;;;;6.72;1.65;;;6.60;99.90;;;;;;5043003;28;20135;-65
2021/04/04 04:23:04;;;;;;;8.05;1.35;;;6.60;99.90;;;;;;5038723;28;20116;-66
2021/04/04 04:25:31;;;;;;;3.42;0.95;;;6.60;99.90;;;;;;5043672;28;20037;-67
2021/04/04 04:27:58;;;;;;;9.50;1.60;;;6.60;99.90;;;;;;5047845;28;20029;-64
2021/04/04 04:30:25;;;;;;;6.68;1.08;;;6.60;99.90;;;;;;5044761;28;20033;-65
2021/04/04 04:32:57;;;;;;;6.38;0.98;;;6.60;99.90;;;;;;5046865;28;20080;-65
2021/04/04 04:35:25;;;;;;;7.18;1.50;;;6.50;99.90;;;;;;5046563;28;20048;-64
2021/04/04 04:37:51;;;;;;;5.47;0.93;;;6.50;99.90;;;;;;5043259;28;20498;-64
2021/04/04 04:40:18;;;;;;;6.00;1.17;;;6.50;99.90;;;;;;5043673;28;20041;-65
2021/04/04 04:42:47;;;;;;;8.10;1.08;;;6.50;99.90;;;;;;5043346;28;20155;-64
2021/04/04 04:45:33;;;;;;;9.38;1.42;;;6.50;99.90;;;;;;5044476;28;20040;-65
2021/04/04 04:47:59;;;;;;;4.40;0.90;;;6.50;99.90;;;;;;5065342;28;20040;-65
2021/04/04 04:50:25;;;;;;;8.55;0.80;;;6.50;99.90;;;;;;5043625;28;20136;-65
2021/04/04 04:52:52;;;;;;;7.80;1.10;;;6.50;99.90;;;;;;5045755;28;20116;-65
2021/04/04 04:55:18;;;;;;;7.22;0.93;;;6.50;99.90;;;;;;5048651;28;20047;-65
2021/04/04 04:57:45;;;;;;;6.25;1.00;;;6.50;99.90;;;;;;5039254;28;20457;-65
2021/04/04 05:00:11;;;;;;;6.68;0.93;;;6.50;99.90;;;;;;5041862;28;20037;-65
2021/04/04 05:02:38;;;;;;;7.00;1.10;;;6.40;99.90;;;;;;5039560;28;20116;-65
2021/04/04 05:05:06;;;;;;;5.88;0.88;;;6.40;99.90;;;;;;5038973;28;20036;-65
2021/04/04 05:07:36;;;;;;;3.72;0.98;;;6.40;99.90;;;;;;5046622;28;20029;-66
2021/04/04 05:10:07;;;;;;;13.15;2.45;;;6.40;99.90;;;;;;5046267;28;20029;-67
2021/04/04 05:12:37;;;;;;;6.25;1.35;;;6.40;99.90;;;;;;5047181;28;20109;-65
2021/04/04 05:15:04;;;;;;;5.00;1.45;;;6.40;99.90;;;;;;5041793;28;20025;-65
2021/04/04 05:17:33;;;;;;;11.18;2.08;;;6.40;99.90;;;;;;5043051;28;20102;-66
2021/04/04 05:19:59;;;;;;;12.38;1.40;;;6.40;99.90;;;;;;5045528;28;20029;-65
2021/04/04 05:22:26;;;;;;;5.18;1.08;;;6.40;99.90;;;;;;5041953;28;20052;-65
2021/04/04 05:24:51;;;;;;;8.40;1.30;;;6.40;99.90;;;;;;5045958;28;20029;-65
2021/04/04 05:27:19;;;;;;;9.60;0.90;;;6.40;99.90;;;;;;5042250;28;20029;-65
2021/04/04 05:29:45;;;;;;;8.30;1.48;;;6.50;99.90;;;;;;5041226;28;20036;-65
2021/04/04 05:32:11;;;;;;;6.75;0.85;;;6.50;99.90;;;;;;5042331;28;20037;-66
2021/04/04 05:34:39;;;;;;;8.95;1.30;;;6.50;99.90;;;;;;5044540;28;20068;-66
2021/04/04 05:37:06;;;;;;;5.53;1.50;;;6.60;99.90;;;;;;5043811;28;20029;-66
2021/04/04 05:39:34;;;;;;;10.95;1.50;;;6.60;99.90;;;;;;5043881;28;20029;-65
2021/04/04 05:42:01;;;;;;;14.30;2.60;;;6.50;99.90;;;;;;5041526;28;20500;-65
2021/04/04 05:44:46;;;;;;;8.15;1.25;;;6.50;99.90;;;;;;5045687;28;20049;-65
2021/04/04 05:47:43;;;;;;;8.38;1.55;;;6.60;99.90;;;;;;5043506;28;20029;-67
2021/04/04 05:50:47;;;;;;;9.07;0.98;;;6.60;99.90;;;;;;5043881;28;20075;-66
2021/04/04 05:53:21;;;;;;;5.50;1.20;;;6.60;99.90;;;;;;5045038;28;20417;-66
2021/04/04 05:56:04;;;;;;;7.10;2.03;;;6.50;99.90;;;;;;5037749;28;20498;-66
2021/04/04 05:58:50;;;;;;;5.68;0.90;;;6.50;99.90;;;;;;5045648;28;20067;-65
2021/04/04 06:01:25;;;;;;;5.55;1.42;;;6.50;99.90;;;;;;5037873;28;20047;-67
2021/04/04 06:04:02;;;;;;;12.52;1.40;;;6.60;99.90;;;;;;5076711;28;20077;-64
2021/04/04 06:06:44;;;;;;;7.70;1.65;;;6.60;99.90;;;;;;5043295;28;20367;-66
2021/04/04 06:09:59;;;;;;;7.18;2.08;;;6.60;99.90;;;;;;5042589;28;20047;-67
2021/04/04 06:12:43;;;;;;;18.75;3.08;;;6.60;99.90;;;;;;5028223;28;20506;-65
2021/04/04 06:15:26;;;;;;;10.20;1.90;;;6.60;99.90;;;;;;5062630;28;20037;-70
2021/04/04 06:18:09;;;;;;;10.27;1.42;;;6.60;99.90;;;;;;5041131;28;20029;-66
2021/04/04 06:21:02;;;;;;;6.18;1.00;;;6.70;99.90;;;;;;5039260;28;20029;-65
2021/04/04 06:23:32;;;;;;;5.28;1.13;;;6.70;99.90;;;;;;5046676;28;20055;-65
2021/04/04 06:26:28;;;;;;;5.95;0.90;;;6.70;99.90;;;;;;5038651;28;20065;-66
2021/04/04 06:29:10;;;;;;;6.20;0.98;;;6.60;99.90;;;;;;5039560;28;20040;-66
2021/04/04 06:31:47;;;;;;;11.65;1.73;;;6.60;99.90;;;;;;5039300;28;20049;-65
2021/04/04 06:34:40;;;;;;;10.52;1.33;;;6.70;99.90;;;;;;5072424;28;20037;-66
2021/04/04 06:37:33;;;;;;;4.03;1.30;;;6.60;99.90;;;;;;5035245;28;20029;-64
2021/04/04 06:40:09;;;;;;;4.68;1.33;;;6.70;99.90;;;;;;5041157;28;20072;-66
2021/04/04 06:42:56;;;;;;;7.82;1.33;;;6.70;99.90;;;;;;5038670;28;20025;-66
2021/04/04 06:45:27;;;;;;;6.50;1.50;;;6.70;99.90;;;;;;5040593;28;20061;-67
2021/04/04 06:48:04;;;;;;;9.18;1.30;;;6.70;99.90;;;;;;5042964;28;20033;-66
2021/04/04 06:50:37;;;;;;;11.77;1.45;;;6.70;99.90;;;;;;5036763;28;20509;-66
2021/04/04 06:53:26;;;;;;;2.42;1.00;;;6.80;99.90;;;;;;5042145;28;20041;-65
2021/04/04 06:56:07;;;;;;;2.35;0.63;;;6.80;99.90;;;;;;5052604;28;20037;-66
2021/04/04 06:58:49;;;;;;;4.97;1.00;;;6.80;99.90;;;;;;5052806;28;20037;-65
2021/04/04 07:01:21;;;;;;;3.80;1.00;;;6.80;99.90;;;;;;5055064;28;20032;-65
2021/04/04 07:03:58;;;;;;;2.17;0.95;;;6.80;99.90;;;;;;5040533;28;20053;-66
2021/04/04 07:06:46;;;;;;;5.55;1.30;;;6.80;99.90;;;;;;5042671;28;20043;-66
2021/04/04 07:09:30;;;;;;;7.43;1.65;;;6.80;99.90;;;;;;5045682;28;20110;-66
2021/04/04 07:12:08;;;;;;;14.10;2.17;;;6.70;99.90;;;;;;5058343;28;20064;-65
2021/04/04 07:15:05;;;;;;;7.60;2.78;;;6.70;99.90;;;;;;5044384;28;20033;-65
2021/04/04 07:18:10;;;;;;;8.73;1.70;;;6.80;99.90;;;;;;5040186;28;20409;-66
2021/04/04 07:21:05;;;;;;;9.27;2.90;;;6.70;99.90;;;;;;5046893;28;20033;-66
2021/04/04 07:24:02;;;;;;;7.45;1.88;;;6.80;99.90;;;;;;5045990;28;20144;-67
2021/04/04 07:26:58;;;;;;;5.55;2.05;;;6.80;99.90;;;;;;5002777;28;20368;-67
2021/04/04 07:29:51;;;;;;;9.48;2.20;;;6.80;99.90;;;;;;5046310;28;20034;-67
2021/04/04 07:32:22;;;;;;;9.55;2.88;;;6.90;99.90;;;;;;5043054;28;20032;-66
2021/04/04 07:34:55;;;;;;;11.52;2.17;;;6.90;99.90;;;;;;5046687;28;20508;-67
2021/04/04 07:37:41;;;;;;;5.82;2.33;;;6.90;99.90;;;;;;5048711;28;20033;-65
2021/04/04 07:40:33;;;;;;;9.95;3.40;;;6.90;99.90;;;;;;5017072;28;20102;-66
2021/04/04 07:43:06;;;;;;;14.50;3.75;;;7.00;99.90;;;;;;5044495;28;20047;-66
2021/04/04 07:45:58;;;;;;;10.02;2.60;;;7.00;99.90;;;;;;5047417;28;20025;-66
2021/04/04 07:48:27;;;;;;;11.23;2.70;;;7.10;99.90;;;;;;5045893;28;20043;-64
2021/04/04 07:51:04;;;;;;;7.35;2.35;;;7.10;99.90;;;;;;5048508;28;20075;-65
2021/04/04 07:53:43;;;;;;;8.10;1.95;;;7.10;99.90;;;;;;5045290;28;20044;-65
2021/04/04 07:56:16;;;;;;;10.10;2.28;;;7.10;99.90;;;;;;5046581;28;20041;-65
2021/04/04 07:58:49;;;;;;;7.60;2.70;;;7.10;99.90;;;;;;5047425;28;20444;-66
2021/04/04 08:01:19;;;;;;;10.38;2.53;;;7.10;99.90;;;;;;5049763;28;20057;-66
2021/04/04 08:04:09;;;;;;;10.63;2.30;;;7.20;99.90;;;;;;5051111;28;20486;-66
2021/04/04 08:06:46;;;;;;;6.85;2.08;;;7.10;99.90;;;;;;5047389;28;20043;-64
2021/04/04 08:09:33;;;;;;;10.70;2.40;;;7.10;99.90;;;;;;5050275;28;20104;-66
2021/04/04 08:12:23;;;;;;;6.20;1.77;;;7.20;99.90;;;;;;5050086;28;20449;-65
2021/04/04 08:15:01;;;;;;;8.77;1.45;;;7.20;99.90;;;;;;5039876;28;20042;-65
2021/04/04 08:17:26;;;;;;;8.88;1.67;;;7.20;99.90;;;;;;5043579;28;20126;-67
2021/04/04 08:20:23;;;;;;;4.57;1.55;;;7.20;99.90;;;;;;5048091;28;20099;-67
2021/04/04 08:23:01;;;;;;;3.45;1.50;;;7.20;99.90;;;;;;5045349;28;20040;-66
2021/04/04 08:25:37;;;;;;;3.92;0.90;;;7.20;99.90;;;;;;5043187;28;20397;-69
2021/04/04 08:28:11;;;;;;;7.65;1.30;;;7.20;99.90;;;;;;5046439;28;20028;-66
2021/04/04 08:30:59;;;;;;;5.88;2.30;;;7.20;99.90;;;;;;5040536;28;20248;-66
2021/04/04 08:34:05;;;;;;;4.20;2.05;;;7.30;99.90;;;;;;5040265;28;20045;-65
2021/04/04 08:36:38;;;;;;;4.65;1.38;;;7.30;99.90;;;;;;5044585;28;20037;-65
2021/04/04 08:39:05;;;;;;;7.47;1.20;;;7.30;99.90;;;;;;5044387;28;20049;-66
2021/04/04 08:41:35;;;;;;;3.58;1.05;;;7.30;99.90;;;;;;5043720;28;20075;-67
2021/04/04 08:44:15;;;;;;;7.57;1.27;;;7.40;99.90;;;;;;5047285;28;20071;-66
2021/04/04 08:46:54;;;;;;;3.63;0.90;;;7.40;99.90;;;;;;5046096;28;20033;-67
2021/04/04 08:49:21;;;;;;;5.93;1.42;;;7.60;99.90;;;;;;5048139;28;20662;-67
2021/04/04 08:51:58;;;;;;;10.48;1.48;;;7.60;99.90;;;;;;5052924;28;20068;-67
2021/04/04 08:54:27;;;;;;;8.85;1.58;;;7.60;99.90;;;;;;5048521;28;20512;-67
2021/04/04 08:56:55;;;;;;;4.75;1.58;;;7.70;99.90;;;;;;5046656;28;20099;-65
2021/04/04 08:59:24;;;;;;;4.03;1.10;;;7.80;99.90;;;;;;5046005;28;20029;-65
2021/04/04 09:01:59;;;;;;;6.22;1.48;;;7.90;99.90;;;;;;5046097;28;20049;-67
2021/04/04 09:04:26;;;;;;;4.05;1.33;;;8.00;99.90;;;;;;5045531;28;20029;-67
2021/04/04 09:06:52;;;;;;;6.05;1.33;;;8.00;99.90;;;;;;5044524;28;20486;-67
2021/04/04 09:09:26;;;;;;;9.50;1.88;;;8.10;99.90;;;;;;5045632;28;20175;-67
2021/04/04 09:11:57;;;;;;;6.47;1.70;;;8.10;99.90;;;;;;5049516;28;20060;-66
2021/04/04 09:14:24;;;;;;;7.38;2.45;;;8.10;99.90;;;;;;5046145;28;20120;-67
2021/04/04 09:16:58;;;;;;;11.85;2.33;;;8.10;99.90;;;;;;5043384;28;20077;-64
2021/04/04 09:19:34;;;;;;;6.88;1.80;;;8.10;99.90;;;;;;5045233;28;20050;-67
2021/04/04 09:22:04;;;;;;;7.90;2.03;;;8.20;99.90;;;;;;5046657;28;20486;-65
2021/04/04 09:24:53;;;;;;;8.38;2.10;;;8.30;99.90;;;;;;5044757;28;20060;-66
2021/04/04 09:27:21;;;;;;;8.15;2.00;;;8.30;99.90;;;;;;5043017;28;20041;-65
2021/04/04 09:29:52;;;;;;;13.00;2.13;;;8.40;99.90;;;;;;5046262;28;20120;-65
2021/04/04 09:32:39;;;;;;;8.48;2.53;;;8.40;99.90;;;;;;5043166;28;20094;-65
2021/04/04 09:35:06;;;;;;;9.70;2.33;;;8.30;99.90;;;;;;5049642;28;20037;-65
2021/04/04 09:37:34;;;;;;;8.23;2.25;;;8.30;99.90;;;;;;5046064;28;20149;-65
2021/04/04 09:40:00;;;;;;;6.82;2.03;;;8.30;99.90;;;;;;5044239;28;20037;-65
2021/04/04 09:42:32;;;;;;;5.53;2.25;;;8.40;99.90;;;;;;5043403;28;20500;-65
2021/04/04 09:45:18;;;;;;;7.43;2.50;;;8.40;99.90;;;;;;5046016;28;20215;-65
2021/04/04 09:47:45;;;;;;;7.55;2.75;;;8.40;99.90;;;;;;5043593;28;20048;-65
2021/04/04 09:50:18;;;;;;;11.85;3.20;;;8.40;99.90;;;;;;5041342;28;20068;-64
2021/04/04 09:52:44;;;;;;;8.20;3.22;;;8.40;99.90;;;;;;5042700;28;20052;-67
2021/04/04 09:55:18;;;;;;;7.85;2.58;;;8.40;99.90;;;;;;5047257;28;20033;-65
2021/04/04 09:57:55;;;;;;;7.90;3.30;;;8.40;99.90;;;;;;5043858;28;20044;-66
2021/04/04 10:00:35;;;;;;;9.68;3.00;;;8.50;99.90;;;;;;5046278;28;20041;-66
2021/04/04 10:03:15;;;;;;;9.27;2.92;;;8.70;99.90;;;;;;5044520;28;20090;-65
2021/04/04 10:05:43;;;;;;;14.57;2.95;;;8.70;99.90;;;;;;5042318;28;20052;-65
2021/04/04 10:08:17;;;;;;;7.82;3.28;;;8.70;99.90;;;;;;5039435;28;20053;-66
2021/04/04 10:10:49;;;;;;;11.32;4.13;;;8.70;99.90;;;;;;5041948;28;20032;-67
2021/04/04 10:13:15;;;;;;;8.90;3.55;;;8.70;99.90;;;;;;5046501;28;20029;-64
2021/04/04 10:15:43;;;;;;;12.35;4.38;;;8.80;99.90;;;;;;5047072;28;20029;-65
2021/04/04 10:18:09;;;;;;;18.15;4.85;;;8.90;99.90;;;;;;5037977;28;20116;-65
2021/04/04 10:20:40;;;;;;;12.55;3.35;;;9.00;99.90;;;;;;5043387;28;20052;-67
2021/04/04 10:23:07;;;;;;;10.65;3.10;;;9.00;99.90;;;;;;5038083;28;20087;-66
2021/04/04 10:25:33;;;;;;;9.55;3.35;;;9.00;99.90;;;;;;5041060;28;20037;-66
2021/04/04 10:28:08;;;;;;;8.15;2.92;;;9.00;99.90;;;;;;5042163;28;20033;-66
2021/04/04 10:30:36;;;;;;;8.77;2.83;;;9.10;99.90;;;;;;5041688;28;20037;-66
2021/04/04 10:33:25;;;;;;;14.80;3.90;;;9.20;99.90;;;;;;5042109;28;20033;-66
2021/04/04 10:35:53;;;;;;;9.80;3.10;;;9.20;99.90;;;;;;5046042;28;20124;-66
2021/04/04 10:38:24;;;;;;;11.88;3.38;;;9.20;99.90;;;;;;5039280;28;20053;-67
2021/04/04 10:40:54;;;;;;;;;;;9.20;99.90;;;;;;5049018;28;20187;-63
2021/04/04 10:43:34;;;;;;;9.32;3.47;;;9.20;99.90;;;;;;5049140;28;19963;-64
2021/04/04 10:46:01;;;;;;;10.07;3.38;;;9.10;99.90;;;;;;5043105;28;20033;-66
2021/04/04 10:48:29;;;;;;;12.57;3.60;;;9.20;99.90;;;;;;5039653;28;20042;-66
2021/04/04 10:50:55;;;;;;;12.57;3.45;;;9.40;99.90;;;;;;5036454;28;20028;-66
2021/04/04 10:53:21;;;;;;;7.25;2.33;;;9.30;99.90;;;;;;5040396;28;20021;-67
2021/04/04 10:55:47;;;;;;;8.40;2.35;;;9.50;99.90;;;;;;5043840;28;20037;-67
2021/04/04 10:58:14;;;;;;;9.07;2.25;;;9.40;99.90;;;;;;5044225;28;20025;-65
2021/04/04 11:00:42;;;;;;;8.63;2.45;;;9.60;99.90;;;;;;5046676;28;20075;-67
2021/04/04 11:03:08;;;;;;;8.55;3.08;;;9.60;99.90;;;;;;5043623;28;20111;-67
2021/04/04 11:05:36;;;;;;;10.13;2.63;;;9.60;99.90;;;;;;5045485;28;20136;-66
2021/04/04 11:08:03;;;;;;;10.57;2.53;;;9.70;99.90;;;;;;5040521;28;20449;-66
2021/04/04 11:10:28;;;;;;;8.38;2.40;;;9.70;99.90;;;;;;5043885;28;20025;-66
2021/04/04 11:12:55;;;;;;;12.70;3.00;;;9.90;99.90;;;;;;5045602;28;20036;-67
2021/04/04 11:15:21;;;;;;;6.40;2.83;;;9.90;99.90;;;;;;5043719;28;20033;-66
2021/04/04 11:17:49;;;;;;;8.98;2.22;;;10.10;99.90;;;;;;5040554;28;20082;-67
2021/04/04 11:20:19;;;;;;;7.40;2.20;;;10.10;99.90;;;;;;5041395;28;20101;-67
2021/04/04 11:22:46;;;;;;;7.93;2.72;;;10.20;99.90;;;;;;5039529;28;20040;-67
2021/04/04 11:25:15;;;;;;;7.10;2.35;;;10.30;99.90;;;;;;5037127;28;20510;-70
2021/04/04 11:27:44;;;;;;;9.32;2.00;;;10.40;99.90;;;;;;5042360;28;20033;-66
2021/04/04 11:30:14;;;;;;;9.52;2.00;;;10.40;99.90;;;;;;5039251;28;20022;-67
2021/04/04 11:32:45;;;;;;;6.55;1.98;;;10.50;99.90;;;;;;5038834;28;20116;-67
2021/04/04 11:35:13;;;;;;;7.20;2.00;;;10.60;99.90;;;;;;5039276;28;20029;-66
2021/04/04 11:37:41;;;;;;;6.43;1.60;;;10.60;99.90;;;;;;5042727;28;20104;-66
2021/04/04 11:40:18;;;;;;;8.40;1.83;;;10.70;99.40;;;;;;5042805;28;20037;-66
2021/04/04 11:43:05;;;;;;;6.72;1.95;;;10.70;99.00;;;;;;5037046;28;20044;-67
2021/04/04 11:45:39;;;;;;;4.63;1.58;;;10.70;98.00;;;;;;5025142;28;20033;-66
2021/04/04 11:48:28;;;;;;;10.18;3.22;;;10.80;98.00;;;;;;5038004;28;20033;-67
2021/04/04 11:50:54;;;;;;;6.20;2.40;;;10.80;98.70;;;;;;5044560;28;20037;-66
2021/04/04 11:53:48;;;;;;;9.23;2.38;;;10.80;97.90;;;;;;5071476;28;20037;-65
2021/04/04 11:56:42;;;;;;;6.65;2.38;;;10.80;99.20;;;;;;5038474;28;20053;-67
2021/04/04 11:59:08;;;;;;;7.70;1.92;;;10.90;99.40;;;;;;5037783;28;20034;-65
2021/04/04 12:01:34;;;;;;;7.32;2.47;;;11.00;98.00;;;;;;5041474;28;20452;-66
2021/04/04 12:04:20;;;;;;;7.05;2.47;;;10.90;98.30;;;;;;5040879;28;20033;-65
2021/04/04 12:06:46;;;;;;;9.32;2.17;;;11.00;98.90;;;;;;5043930;28;20474;-67
2021/04/04 12:09:14;;;;;;;8.45;1.98;;;11.00;98.10;;;;;;5044797;28;20041;-66
2021/04/04 12:11:40;;;;;;;4.20;1.70;;;11.00;97.50;;;;;;5048493;28;20035;-65
2021/04/04 12:14:06;;;;;;;13.20;2.28;;;10.90;97.80;;;;;;5044693;28;20397;-67
2021/04/04 12:16:52;;;;;;;6.78;1.88;;;11.00;98.10;;;;;;5048982;28;20029;-67
2021/04/04 12:19:31;;;;;;;5.15;1.90;;;10.90;98.50;;;;;;5043803;28;20116;-67
2021/04/04 12:21:58;;;;;;;5.50;2.05;;;10.90;98.50;;;;;;5039972;28;20386;-67
2021/04/04 12:24:46;;;;;;;8.73;2.83;;;11.00;97.80;;;;;;5050370;28;20106;-67
2021/04/04 12:27:15;;;;;;;7.22;2.15;;;11.00;97.20;;;;;;5047665;28;20082;-65
2021/04/04 12:29:50;;;;;;;4.70;2.17;;;11.10;98.50;;;;;;5048422;28;20029;-67
2021/04/04 12:32:27;;;;;;;9.65;1.90;;;11.20;96.50;;;;;;5042460;28;20087;-66
2021/04/04 12:34:59;;;;;;;12.68;2.55;;;11.30;96.30;;;;;;5047560;28;20033;-67
2021/04/04 12:37:27;;;;;;;7.15;1.77;;;11.20;97.20;;;;;;5048509;28;20047;-67
2021/04/04 12:39:54;;;;;;;6.22;1.92;;;11.40;96.10;;;;;;5040752;28;21430;-66
2021/04/04 12:42:23;;;;;;;7.55;2.28;;;11.50;95.50;;;;;;5044610;28;20033;-66
2021/04/04 12:44:49;;;;;;;9.07;2.87;;;11.50;95.70;;;;;;5049239;28;20532;-66
2021/04/04 12:47:20;;;;;;;6.03;2.10;;;11.50;95.70;;;;;;5042306;28;20033;-67
2021/04/04 12:50:00;;;;;;;6.80;2.60;;;11.60;93.90;;;;;;5045116;28;20029;-66
2021/04/04 12:52:34;;;;;;;9.68;2.50;;;11.50;93.30;;;;;;5040159;28;20033;-67
2021/04/04 12:55:18;;;;;;;10.15;2.30;;;11.60;93.50;;;;;;5044579;28;20041;-67
2021/04/04 12:57:46;;;;;;;7.68;2.13;;;11.40;94.10;;;;;;5047148;28;20045;-67
2021/04/04 13:00:20;;;;;;;9.80;2.60;;;11.40;95.30;;;;;;5045980;28;20065;-67
2021/04/04 13:03:03;;;;;;;11.63;2.25;;;11.50;95.40;;;;;;5043709;28;20052;-67
2021/04/04 13:05:38;;;;;;;6.88;1.95;;;11.40;94.80;;;;;;5071664;28;20124;-70
2021/04/04 13:08:15;;;;;;;6.80;2.55;;;11.50;95.60;;;;;;5043005;28;20191;-67
2021/04/04 13:10:41;;;;;;;6.38;1.85;;;11.40;95.70;;;;;;5043775;28;20535;-67
2021/04/04 13:13:18;;;;;;;10.02;2.20;;;11.50;94.30;;;;;;5046411;28;20040;-66
2021/04/04 13:15:44;;;;;;;6.43;2.20;;;11.50;94.20;;;;;;5047689;28;20536;-67
2021/04/04 13:18:34;;;;;;;10.77;2.70;;;11.40;95.00;;;;;;5041285;28;20041;-66
2021/04/04 13:21:08;;;;;;;7.32;2.75;;;11.40;95.60;;;;;;5043960;28;20037;-66